Map

Track Data

SID SEASON NUMBER BASIN SUBBASIN NAME ISO_TIME NATURE LAT LON WMO_WIND WMO_PRES WMO_AGENCY TRACK_TYPE DIST2LAND LANDFALL IFLAG USA_AGENCY USA_ATCF_ID USA_LAT USA_LON USA_RECORD USA_STATUS USA_WIND USA_PRES USA_SSHS USA_R34_NE USA_R34_SE USA_R34_SW USA_R34_NW USA_R50_NE USA_R50_SE USA_R50_SW USA_R50_NW USA_R64_NE USA_R64_SE USA_R64_SW USA_R64_NW USA_POCI USA_ROCI USA_RMW USA_EYE TOKYO_LAT TOKYO_LON TOKYO_GRADE TOKYO_WIND TOKYO_PRES TOKYO_R50_DIR TOKYO_R50_LONG TOKYO_R50_SHORT TOKYO_R30_DIR TOKYO_R30_LONG TOKYO_R30_SHORT TOKYO_LAND CMA_LAT CMA_LON CMA_CAT CMA_WIND CMA_PRES HKO_LAT HKO_LON HKO_CAT HKO_WIND HKO_PRES NEWDELHI_LAT NEWDELHI_LON NEWDELHI_GRADE NEWDELHI_WIND NEWDELHI_PRES NEWDELHI_CI NEWDELHI_DP NEWDELHI_POCI REUNION_LAT REUNION_LON REUNION_TYPE REUNION_WIND REUNION_PRES REUNION_TNUM REUNION_CI REUNION_RMW REUNION_R34_NE REUNION_R34_SE REUNION_R34_SW REUNION_R34_NW REUNION_R50_NE REUNION_R50_SE REUNION_R50_SW REUNION_R50_NW REUNION_R64_NE REUNION_R64_SE REUNION_R64_SW REUNION_R64_NW BOM_LAT BOM_LON BOM_TYPE BOM_WIND BOM_PRES BOM_TNUM BOM_CI BOM_RMW BOM_R34_NE BOM_R34_SE BOM_R34_SW BOM_R34_NW BOM_R50_NE BOM_R50_SE BOM_R50_SW BOM_R50_NW BOM_R64_NE BOM_R64_SE BOM_R64_SW BOM_R64_NW BOM_ROCI BOM_POCI BOM_EYE BOM_POS_METHOD BOM_PRES_METHOD NADI_LAT NADI_LON NADI_CAT NADI_WIND NADI_PRES WELLINGTON_LAT WELLINGTON_LON WELLINGTON_WIND WELLINGTON_PRES DS824_LAT DS824_LON DS824_STAGE DS824_WIND DS824_PRES TD9636_LAT TD9636_LON TD9636_STAGE TD9636_WIND TD9636_PRES TD9635_LAT TD9635_LON TD9635_WIND TD9635_PRES TD9635_ROCI NEUMANN_LAT NEUMANN_LON NEUMANN_CLASS NEUMANN_WIND NEUMANN_PRES MLC_LAT MLC_LON MLC_CLASS MLC_WIND MLC_PRES USA_GUST BOM_GUST BOM_GUST_PER REUNION_GUST REUNION_GUST_PER USA_SEAHGT USA_SEARAD_NE USA_SEARAD_SE USA_SEARAD_SW USA_SEARAD_NW STORM_SPEED STORM_DIR
1958278N19279 1958 93 NA CS JANICE 1958-10-04 12:00:00 TS 18.5000 -81.1000 30 hurdat_atl main 286 286 O_____________ hurdat_atl AL101958 18.5000 -81.1000 TD 30 -1 5 352
1958278N19279 1958 93 NA CS JANICE 1958-10-04 15:00:00 TS 18.7600 -81.1500 main 292 292 P_____________ AL101958 18.7600 -81.1500 TD 30 -1 5 349
1958278N19279 1958 93 NA CS JANICE 1958-10-04 18:00:00 TS 19.0000 -81.2000 30 hurdat_atl main 308 297 O_____________ hurdat_atl AL101958 19.0000 -81.2000 TD 30 -1 5 348
1958278N19279 1958 93 NA CS JANICE 1958-10-04 21:00:00 TS 19.2075 -81.2500 main 291 272 P_____________ AL101958 19.2075 -81.2500 TD 30 -1 4 347
1958278N19279 1958 93 NA CS JANICE 1958-10-05 00:00:00 TS 19.4000 -81.3000 30 1005 hurdat_atl main 272 248 O_____________ hurdat_atl AL101958 19.4000 -81.3000 TD 30 1005 -1 4 344
1958278N19279 1958 93 NA CS JANICE 1958-10-05 03:00:00 TS 19.5925 -81.3575 main 248 230 P_____________ AL101958 19.5925 -81.3575 TD 30 1004 -1 4 347
1958278N19279 1958 93 NA CS JANICE 1958-10-05 06:00:00 TS 19.8000 -81.4000 30 hurdat_atl main 230 212 I_____________ hurdat_atl AL101958 19.8000 -81.4000 TD 30 1003 -1 4 353
1958278N19279 1958 93 NA CS JANICE 1958-10-05 09:00:00 TS 20.0350 -81.4224 main 212 184 P_____________ AL101958 20.0350 -81.4224 TD 32 1002 -1 5 2
1958278N19279 1958 93 NA CS JANICE 1958-10-05 12:00:00 TS 20.3000 -81.4000 35 1002 hurdat_atl main 184 157 O_____________ hurdat_atl AL101958 20.3000 -81.4000 TS 35 1002 0 6 7
1958278N19279 1958 93 NA CS JANICE 1958-10-05 15:00:00 TS 20.5849 -81.3448 main 156 122 P_____________ AL101958 20.5849 -81.3448 TS 40 0 6 17
1958278N19279 1958 93 NA CS JANICE 1958-10-05 18:00:00 TS 20.9000 -81.2000 45 hurdat_atl main 122 91 O_____________ hurdat_atl AL101958 20.9000 -81.2000 TS 45 0 8 31
1958278N19279 1958 93 NA CS JANICE 1958-10-05 21:00:00 TS 21.2330 -80.9273 main 94 45 P_____________ AL101958 21.2330 -80.9273 TS 45 0 9 39
1958278N19279 1958 93 NA CS JANICE 1958-10-06 00:00:00 TS 21.6000 -80.6000 45 hurdat_atl main 45 0 O_____________ hurdat_atl AL101958 21.6000 -80.6000 TS 45 0 10 37
1958278N19279 1958 93 NA NA JANICE 1958-10-06 03:00:00 TS 22.0000 -80.3000 50 hurdat_atl main 0 0 O_____________ hurdat_atl AL101958 22.0000 -80.3000 L TS 50 0 10 39
1958278N19279 1958 93 NA NA JANICE 1958-10-06 06:00:00 TS 22.4000 -79.9000 45 hurdat_atl main 0 0 O_____________ hurdat_atl AL101958 22.4000 -79.9000 TS 45 0 12 46
1958278N19279 1958 93 NA NA JANICE 1958-10-06 09:00:00 TS 22.8028 -79.3870 main 23 23 P_____________ AL101958 22.8028 -79.3870 TS 50 0 14 48
1958278N19279 1958 93 NA NA JANICE 1958-10-06 12:00:00 TS 23.3000 -78.8000 55 hurdat_atl main 105 30 O_____________ hurdat_atl AL101958 23.3000 -78.8000 TS 55 0 16 42
1958278N19279 1958 93 NA NA JANICE 1958-10-06 15:00:00 TS 23.9971 -78.2019 main 30 0 P_____________ AL101958 23.9971 -78.2019 TS 55 0 17 39
1958278N19279 1958 93 NA NA JANICE 1958-10-06 16:00:00 TS 24.2000 -78.0000 55 991 hurdat_atl main 0 0 O_____________ hurdat_atl AL101958 24.2000 -78.0000 L TS 55 991 0 15 48
1958278N19279 1958 93 NA NA JANICE 1958-10-06 18:00:00 TS 24.5000 -77.6000 55 991 hurdat_atl main 10 10 O_____________ hurdat_atl AL101958 24.5000 -77.6000 TS 55 991 0 15 42
1958278N19279 1958 93 NA NA JANICE 1958-10-06 21:00:00 TS 25.1000 -77.1000 60 hurdat_atl main 83 83 I_____________ hurdat_atl AL101958 25.1000 -77.1000 L HU 60 989 0 15 36
1958278N19279 1958 93 NA NA JANICE 1958-10-06 23:00:00 TS 25.5000 -76.8000 60 hurdat_atl main 128 128 I_____________ hurdat_atl AL101958 25.5000 -76.8000 L HU 60 987 0 17 33
1958278N19279 1958 93 NA NA JANICE 1958-10-07 00:00:00 TS 25.8000 -76.6000 65 987 hurdat_atl main 160 160 O_____________ hurdat_atl AL101958 25.8000 -76.6000 HU 65 987 1 19 32
1958278N19279 1958 93 NA NA JANICE 1958-10-07 03:00:00 TS 26.5720 -76.0428 main 260 260 P_____________ AL101958 26.5720 -76.0428 HU 65 1 17 33
1958278N19279 1958 93 NA NA JANICE 1958-10-07 06:00:00 TS 27.2000 -75.6000 65 hurdat_atl main 335 335 O_____________ hurdat_atl AL101958 27.2000 -75.6000 HU 65 1 14 28
1958278N19279 1958 93 NA NA JANICE 1958-10-07 09:00:00 TS 27.8097 -75.2969 main 403 403 P_____________ AL101958 27.8097 -75.2969 HU 67 1 12 22
1958278N19279 1958 93 NA NA JANICE 1958-10-07 12:00:00 TS 28.3000 -75.1000 70 hurdat_atl main 458 458 O_____________ hurdat_atl AL101958 28.3000 -75.1000 HU 70 1 9 21
1958278N19279 1958 93 NA NA JANICE 1958-10-07 15:00:00 TS 28.6449 -74.9346 main 497 497 P_____________ AL101958 28.6449 -74.9346 HU 70 1 7 24
1958278N19279 1958 93 NA NA JANICE 1958-10-07 18:00:00 TS 28.9000 -74.8000 70 983 hurdat_atl main 529 529 O_____________ hurdat_atl AL101958 28.9000 -74.8000 HU 70 983 1 6 26
1958278N19279 1958 93 NA NA JANICE 1958-10-07 21:00:00 TS 29.1500 -74.6499 main 559 559 P_____________ AL101958 29.1500 -74.6499 HU 70 983 1 6 28
1958278N19279 1958 93 NA NA JANICE 1958-10-08 00:00:00 TS 29.4000 -74.5000 70 hurdat_atl main 591 578 I_____________ hurdat_atl AL101958 29.4000 -74.5000 HU 70 984 1 6 25
1958278N19279 1958 93 NA NA JANICE 1958-10-08 03:00:00 TS 29.6850 -74.3573 main 578 563 P_____________ AL101958 29.6850 -74.3573 HU 70 985 1 7 23
1958278N19279 1958 93 NA NA JANICE 1958-10-08 06:00:00 TS 30.0000 -74.2000 70 986 hurdat_atl main 563 539 O_____________ hurdat_atl AL101958 30.0000 -74.2000 HU 70 986 1 7 24
1958278N19279 1958 93 NA NA JANICE 1958-10-08 09:00:00 TS 30.3425 -74.0149 main 543 512 P_____________ AL101958 30.3425 -74.0149 HU 70 986 1 8 26
1958278N19279 1958 93 NA NA JANICE 1958-10-08 12:00:00 TS 30.7000 -73.8000 70 hurdat_atl main 512 483 I_____________ hurdat_atl AL101958 30.7000 -73.8000 HU 70 987 1 8 28
1958278N19279 1958 93 NA NA JANICE 1958-10-08 15:00:00 TS 31.0725 -73.5576 main 483 473 P_____________ AL101958 31.0725 -73.5576 HU 70 987 1 8 31
1958278N19279 1958 93 NA NA JANICE 1958-10-08 18:00:00 TS 31.4000 -73.3000 70 988 hurdat_atl main 473 462 O_____________ hurdat_atl AL101958 31.4000 -73.3000 HU 70 988 1 7 37
1958278N19279 1958 93 NA NA JANICE 1958-10-08 21:00:00 TS 31.6373 -73.0648 main 468 464 P_____________ AL101958 31.6373 -73.0648 HU 70 986 1 6 47
1958278N19279 1958 93 NA NA JANICE 1958-10-09 00:00:00 TS 31.8000 -72.8000 70 984 hurdat_atl main 471 470 O_____________ hurdat_atl AL101958 31.8000 -72.8000 HU 70 984 1 6 60
1958278N19279 1958 93 NA NA JANICE 1958-10-09 03:00:00 TS 31.9146 -72.5022 main 484 484 P_____________ AL101958 31.9146 -72.5022 HU 70 983 1 6 71
1958278N19279 1958 93 NA NA JANICE 1958-10-09 06:00:00 TS 32.0000 -72.1000 70 hurdat_atl main 505 505 I_____________ hurdat_atl AL101958 32.0000 -72.1000 HU 70 983 1 8 79
1958278N19279 1958 93 NA NA JANICE 1958-10-09 09:00:00 TS 32.0776 -71.5445 main 542 542 P_____________ AL101958 32.0776 -71.5445 HU 70 982 1 10 79
1958278N19279 1958 93 NA NA JANICE 1958-10-09 12:00:00 TS 32.2000 -70.9000 70 982 hurdat_atl main 582 582 O_____________ hurdat_atl AL101958 32.2000 -70.9000 HU 70 982 1 11 73
1958278N19279 1958 93 NA NA JANICE 1958-10-09 15:00:00 TS 32.4199 -70.2501 main 609 609 P_____________ AL101958 32.4199 -70.2501 HU 72 1 12 66
1958278N19279 1958 93 NA NA JANICE 1958-10-09 18:00:00 TS 32.7000 -69.6000 75 hurdat_atl main 641 641 O_____________ hurdat_atl AL101958 32.7000 -69.6000 HU 75 1 12 62
1958278N19279 1958 93 NA NA JANICE 1958-10-09 21:00:00 TS 32.9845 -68.9994 main 671 671 P_____________ AL101958 32.9845 -68.9994 HU 77 1 12 59
1958278N19279 1958 93 NA NA JANICE 1958-10-10 00:00:00 TS 33.3000 -68.4000 80 hurdat_atl main 705 705 O_____________ hurdat_atl AL101958 33.3000 -68.4000 HU 80 1 12 58
1958278N19279 1958 93 NA NA JANICE 1958-10-10 03:00:00 TS 33.6347 -67.7644 main 743 743 P_____________ AL101958 33.6347 -67.7644 HU 82 1 13 57
1958278N19279 1958 93 NA NA JANICE 1958-10-10 06:00:00 TS 34.0000 -67.1000 85 968 hurdat_atl main 789 789 O_____________ hurdat_atl AL101958 34.0000 -67.1000 HU 85 968 2 13 57
1958278N19279 1958 93 NA NA JANICE 1958-10-10 09:00:00 TS 34.3617 -66.4357 main 840 840 P_____________ AL101958 34.3617 -66.4357 HU 82 970 1 14 55
1958278N19279 1958 93 NA NA JANICE 1958-10-10 12:00:00 TS 34.8000 -65.7000 80 973 hurdat_atl main 854 833 O_____________ hurdat_atl AL101958 34.8000 -65.7000 HU 80 973 1 16 52
1958278N19279 1958 93 NA NA JANICE 1958-10-10 15:00:00 TS 35.3689 -64.8740 main 828 818 P_____________ AL101958 35.3689 -64.8740 HU 80 1 19 51
1958278N19279 1958 93 NA NA JANICE 1958-10-10 18:00:00 TS 36.0000 -63.9000 80 hurdat_atl main 824 796 O_____________ hurdat_atl AL101958 36.0000 -63.9000 HU 80 1 21 54
1958278N19279 1958 93 NA NA JANICE 1958-10-10 21:00:00 TS 36.5998 -62.7514 main 796 767 P_____________ AL101958 36.5998 -62.7514 HU 80 1 23 58
1958278N19279 1958 93 NA NA JANICE 1958-10-11 00:00:00 TS 37.2000 -61.5000 80 hurdat_atl main 770 759 O_____________ hurdat_atl AL101958 37.2000 -61.5000 HU 80 1 23 59
1958278N19279 1958 93 NA NA JANICE 1958-10-11 03:00:00 TS 37.7749 -60.2980 main 760 760 P_____________ AL101958 37.7749 -60.2980 HU 80 1 23 59
1958278N19279 1958 93 NA NA JANICE 1958-10-11 06:00:00 TS 38.4000 -59.0000 80 hurdat_atl main 768 733 O_____________ hurdat_atl AL101958 38.4000 -59.0000 HU 80 1 25 58
1958278N19279 1958 93 NA NA JANICE 1958-10-11 09:00:00 TS 39.1154 -57.5874 main 736 720 P_____________ AL101958 39.1154 -57.5874 HU 80 1 28 58
1958278N19279 1958 93 NA NA JANICE 1958-10-11 12:00:00 TS 39.9000 -55.9000 80 974 hurdat_atl main 725 667 O_____________ hurdat_atl AL101958 39.9000 -55.9000 HU 80 974 1 33 62
1958278N19279 1958 93 NA NA JANICE 1958-10-11 15:00:00 TS 40.6782 -53.8013 main 656 581 P_____________ AL101958 40.6782 -53.8013 HU 80 1 37 64
1958278N19279 1958 93 NA NA JANICE 1958-10-11 18:00:00 TS 41.5000 -51.5000 80 hurdat_atl main 582 560 O_____________ hurdat_atl AL101958 41.5000 -51.5000 HU 80 1 38 63
1958278N19279 1958 93 NA NA JANICE 1958-10-11 21:00:00 TS 42.3907 -49.2181 main 563 563 P_____________ AL101958 42.3907 -49.2181 HU 75 1 38 62
1958278N19279 1958 93 NA NA JANICE 1958-10-12 00:00:00 ET 43.3000 -47.0000 70 hurdat_atl main 608 607 O_____________ hurdat_atl AL101958 43.3000 -47.0000 EX 70 -4 35 60
1958278N19279 1958 93 NA NA JANICE 1958-10-12 03:00:00 ET 44.1860 -45.0162 main 684 684 P_____________ AL101958 44.1860 -45.0162 EX 65 -4 33 59
1958278N19279 1958 93 NA NA JANICE 1958-10-12 06:00:00 ET 45.0000 -43.0000 60 hurdat_atl main 785 785 O_____________ hurdat_atl AL101958 45.0000 -43.0000 EX 60 -4 34 65
1958278N19279 1958 93 NA NA JANICE 1958-10-12 09:00:00 ET 45.6514 -40.6471 main 933 933 P_____________ AL101958 45.6514 -40.6471 EX 55 -4 36 70
1958278N19279 1958 93 NA NA JANICE 1958-10-12 12:00:00 ET 46.2000 -38.2000 50 hurdat_atl main 1098 1098 O_____________ hurdat_atl AL101958 46.2000 -38.2000 EX 50 -4 35 72
1958278N19279 1958 93 NA NA JANICE 1958-10-12 15:00:00 ET 46.7218 -35.8817 main 1259 1259 P_____________ AL101958 46.7218 -35.8817 EX 47 -4 34 73
1958278N19279 1958 93 NA NA JANICE 1958-10-12 18:00:00 ET 47.2000 -33.5000 45 hurdat_atl main 1429 1429 O_____________ hurdat_atl AL101958 47.2000 -33.5000 EX 45 -4 35 75
1958278N19279 1958 93 NA NA JANICE 1958-10-12 21:00:00 ET 47.6301 -30.9213 main 1532 1346 P_____________ AL101958 47.6301 -30.9213 EX 45 -4 36 77
1958278N19279 1958 93 NA NA JANICE 1958-10-13 00:00:00 ET 48.0000 -28.2000 45 hurdat_atl main 1333 O_____________ hurdat_atl AL101958 48.0000 -28.2000 EX 45 -4 37 79

About IBTrACS Database

This database is a web-friendly format of International Best Track Archive for Climate Stewardship (IBTrACS), a global best track data archive curated by NOAA dating back to 1842.

Updated: 2021-12-01